Main page
METAR-TAF:

METAR-TAF

Airports :

AAC Middle Wallop

Middle Wallop, England

latitude: 51-09N, longitude: 001-34W, elevation: 91 m

Current weather observation

The report was made 1 hour and 15 minutes ago, at 23:50 UTC
Wind 21 kt from the West with gusts up to 31 kt
Temperature 4°C
Humidity 87%
Pressure 978 hPa
Visibility 10 km or more

METAR: EGVP 202350Z AUTO 26021G31KT 9999 FEW016/// SCT050/// 04/02 Q0978 RERA

Time: 01:05 (01:05 UTC)


TAF: missing

Weather observations and forecasts of more than 4000 airports (METAR and TAF reports).

The available stations are represented by yellow and red dots on the map.

Hover mouse over dot to see the name of the station.

Then click to see weather observations and forecasts.

To change the map : click on the green buttons with a black cross to zoom in, on the green button with a dash to zoom out, or on the green arrows for adjacent maps.


METAR-TAF: